Howard Lake, MN (55349)

4:23 PM CST on December 20, 2014 (GMT -0600)
KMNHOWAR2 | Change Station
CLOSE
Current Station
Personal Weather Station
Location: Howard Lake, MN
Elevation: 1014 ft
Nearby Weather Stations

Elev 1014 ft 45.06 °N, 94.08 °W | Updated 8 minutes ago

Overcast
Overcast
30.1 °F
Feels Like 30 °F
N
2.0
Wind Variable Wind from SW

Today
High -- | Low -- °F
--% Chance of Precip.
Yesterday
High -- | Low -- °F
Precip. -- in
7:51 AM 4:36 PM
Waning Crescent, 2% visible
Pressure 30.11 in
Visibility 10.0 miles
Clouds Overcast 1100 ft
Windchill 30 °F
Dew Point 28 °F
Humidity 91%
Rainfall 0.00 in
Snow Depth Not available.
UV 0.0 out of 12
Pollen .10 out of 12
Air Quality Not available.
Flu Activity Not available.
METAR KCFE 202215Z AUTO 15005KT 10SM OVC011 M01/M03 A3011 RMK AO2 T10111034

More Conditions Fewer Conditions

Pressure 30.11 in
Visibility 10.0 miles
Clouds Overcast 1100 ft
Windchill 30 °F
Dew Point 28 °F
Humidity 91%
Rainfall 0.00 in
Snow Depth Not available.
UV 0.0 out of 12
Pollen .10 out of 12
Air Quality Not available.
Flu Activity Not available.
METAR KCFE 202215Z AUTO 15005KT 10SM OVC011 M01/M03 A3011 RMK AO2 T10111034

More Conditions Fewer Conditions

10-Day Weather Forecast

Almanac

Astronomy

Dec. 20, 2014 Rise Set
Actual Time
Civil Twilight
Nautical Twilight
Astronomical Twilight
Moon
Length of Visible Light
Length of Day
Tomorrow will be .
, % of the Moon is Illuminated

Today's Extremes

State Highs State Lows

Community

WunderPhotos

Upload Photos

1,779,291 photos uploaded!

WunderBlogs® & News

Nearby

Air Quality

  Air Quality AQ Index Pollutant
Not available.

Snow Depth

Station Depth Elevation

Earthquake Activity

City Distance Mag. Time & Date
Minimum magnitude displayed is 2.5.

Coastal Water Temperatures

Place Temperature

Nearby Weather Stations